createdAt,value
2018-03-07T00:00:41.917Z,97649.20
2018-03-07T00:03:10.352Z,97650.11
2018-03-07T00:05:38.841Z,97647.06
2018-03-07T00:08:07.324Z,97642.84
2018-03-07T00:10:35.770Z,97650.67
2018-03-07T00:13:04.269Z,97649.66
2018-03-07T00:15:33.019Z,97650.50
2018-03-07T00:18:01.471Z,97660.64
2018-03-07T00:20:29.981Z,97652.97
2018-03-07T00:22:58.453Z,97655.53
2018-03-07T00:25:26.879Z,97655.94
2018-03-07T00:27:55.372Z,97649.86
2018-03-07T00:30:23.822Z,97657.60
2018-03-07T00:32:52.273Z,97653.48
2018-03-07T00:35:20.757Z,97651.48
2018-03-07T00:37:49.214Z,97655.27
2018-03-07T00:40:17.666Z,97650.75
2018-03-07T00:42:46.145Z,97648.61
2018-03-07T00:45:14.612Z,97646.89
2018-03-07T00:47:43.032Z,97650.84
2018-03-07T00:50:11.506Z,97645.80
2018-03-07T00:52:39.991Z,97646.05
2018-03-07T00:55:08.442Z,97649.02
2018-03-07T00:57:36.923Z,97648.69
2018-03-07T01:00:05.422Z,97647.53
2018-03-07T01:02:33.879Z,97648.22
2018-03-07T01:05:02.367Z,97650.68
2018-03-07T01:07:30.802Z,97655.53
2018-03-07T01:09:59.244Z,97652.98
2018-03-07T01:12:27.721Z,97652.06
2018-03-07T01:14:56.183Z,97649.19
2018-03-07T01:17:24.636Z,97652.06
2018-03-07T01:19:53.135Z,97648.52
2018-03-07T01:22:21.738Z,97648.94
2018-03-07T01:24:50.171Z,97648.68
2018-03-07T01:27:18.646Z,97646.95
2018-03-07T01:29:47.076Z,97646.20
2018-03-07T01:32:15.509Z,97644.38
2018-03-07T01:34:44.005Z,97640.03
2018-03-07T01:37:12.440Z,97640.03
2018-03-07T01:39:40.878Z,97641.67
2018-03-07T01:42:09.367Z,97637.05
2018-03-07T01:44:37.803Z,97641.22
2018-03-07T01:47:06.240Z,97635.25
2018-03-07T01:49:34.718Z,97637.70
2018-03-07T01:52:03.146Z,97632.34
2018-03-07T01:54:31.598Z,97635.55
2018-03-07T01:57:00.073Z,97628.80
2018-03-07T01:59:28.536Z,97622.37
2018-03-07T02:01:56.991Z,97629.36
2018-03-07T02:04:25.483Z,97621.96
2018-03-07T02:06:53.932Z,97626.67
2018-03-07T02:09:22.376Z,97620.89
2018-03-07T02:11:50.851Z,97617.95
2018-03-07T02:14:19.287Z,97616.63
2018-03-07T02:16:47.754Z,97612.46
2018-03-07T02:19:16.244Z,97613.20
2018-03-07T02:21:44.705Z,97613.31
2018-03-07T02:24:13.164Z,97609.53
2018-03-07T02:26:41.650Z,97611.89
2018-03-07T02:29:10.111Z,97608.95
2018-03-07T02:31:38.572Z,97612.46
2018-03-07T02:34:07.053Z,97612.80
2018-03-07T02:36:35.553Z,97605.08
2018-03-07T02:39:04.064Z,97604.42
2018-03-07T02:41:32.568Z,97603.56
2018-03-07T02:44:01.034Z,97599.44
2018-03-07T02:46:29.491Z,97604.94
2018-03-07T02:48:57.994Z,97605.84
2018-03-07T02:51:26.418Z,97609.38
2018-03-07T02:53:54.909Z,97607.79
2018-03-07T02:56:23.383Z,97606.73
2018-03-07T02:58:51.827Z,97605.95
2018-03-07T03:01:20.262Z,97603.99
2018-03-07T03:03:48.769Z,97601.53
2018-03-07T03:06:17.192Z,97601.69
2018-03-07T03:08:45.618Z,97601.02
2018-03-07T03:11:14.131Z,97609.59
2018-03-07T03:13:42.581Z,97605.64
2018-03-07T03:16:11.011Z,97611.13
2018-03-07T03:18:39.513Z,97605.36
2018-03-07T03:21:07.950Z,97604.31
2018-03-07T03:23:36.401Z,97599.30
2018-03-07T03:26:04.918Z,97596.08
2018-03-07T03:28:33.372Z,97599.54
2018-03-07T03:31:01.838Z,97596.83
2018-03-07T03:33:30.314Z,97596.08
2018-03-07T03:35:58.785Z,97599.84
2018-03-07T03:38:27.225Z,97595.98
2018-03-07T03:40:55.705Z,97603.47
2018-03-07T03:43:24.146Z,97608.70
2018-03-07T03:45:52.594Z,97603.22
2018-03-07T03:48:21.069Z,97612.68
2018-03-07T03:50:49.529Z,97614.80
2018-03-07T03:53:17.993Z,97622.56
2018-03-07T03:55:46.499Z,97627.03
2018-03-07T03:58:14.938Z,97625.57
2018-03-07T04:00:43.404Z,97632.16
2018-03-07T04:03:11.895Z,97630.28
2018-03-07T04:05:40.349Z,97637.13
2018-03-07T04:08:08.799Z,97641.46
2018-03-07T04:10:37.288Z,97641.80
2018-03-07T04:13:05.735Z,97645.18
2018-03-07T04:15:34.450Z,97642.03
2018-03-07T04:18:02.949Z,97641.05
2018-03-07T04:20:31.407Z,97635.61
2018-03-07T04:22:59.862Z,97636.99
2018-03-07T04:25:28.361Z,97644.41
2018-03-07T04:27:57.043Z,97643.34
2018-03-07T04:30:25.500Z,97642.73
2018-03-07T04:32:54.106Z,97640.28
2018-03-07T04:35:22.553Z,97647.23
2018-03-07T04:37:51.006Z,97642.92
2018-03-07T04:40:19.489Z,97648.16
2018-03-07T04:42:48.026Z,97655.52
2018-03-07T04:45:16.481Z,97646.03
2018-03-07T04:47:44.978Z,97653.81
2018-03-07T04:50:13.426Z,97653.13
2018-03-07T04:52:41.880Z,97651.40
2018-03-07T04:55:10.371Z,97654.25
2018-03-07T04:57:38.806Z,97654.23
2018-03-07T05:00:07.250Z,97648.16
2018-03-07T05:02:35.852Z,97647.95
2018-03-07T05:05:04.361Z,97644.66
2018-03-07T05:07:32.821Z,97647.61
2018-03-07T05:10:01.636Z,97651.18
2018-03-07T05:12:30.056Z,97648.77
2018-03-07T05:14:58.497Z,97650.97
2018-03-07T05:17:26.961Z,97652.85
2018-03-07T05:19:55.390Z,97648.06
2018-03-07T05:22:23.836Z,97645.05
2018-03-07T05:24:52.310Z,97649.88
2018-03-07T05:27:20.761Z,97650.28
2018-03-07T05:29:49.205Z,97657.52
2018-03-07T05:32:17.713Z,97653.39
2018-03-07T05:34:46.159Z,97657.16
2018-03-07T05:37:14.601Z,97655.68
2018-03-07T05:39:43.102Z,97656.05
2018-03-07T05:42:11.526Z,97654.80
2018-03-07T05:44:39.959Z,97646.44
2018-03-07T05:47:08.468Z,97650.56
2018-03-07T05:49:36.895Z,97647.41
2018-03-07T05:52:05.343Z,97654.55
2018-03-07T05:54:33.811Z,97654.08
2018-03-07T05:57:02.245Z,97656.55
2018-03-07T05:59:30.679Z,97664.50
2018-03-07T06:01:59.149Z,97666.55
2018-03-07T06:04:27.594Z,97667.52
2018-03-07T06:06:56.081Z,97666.92
2018-03-07T06:09:24.874Z,97676.16
2018-03-07T06:11:53.339Z,97679.97
2018-03-07T06:14:21.777Z,97679.20
2018-03-07T06:16:50.298Z,97677.69
2018-03-07T06:19:19.031Z,97681.83
2018-03-07T06:21:47.494Z,97683.95
2018-03-07T06:24:15.970Z,97684.23
2018-03-07T06:26:44.403Z,97687.61
2018-03-07T06:29:12.843Z,97696.72
2018-03-07T06:31:41.322Z,97695.69
2018-03-07T06:34:09.818Z,97699.13
2018-03-07T06:36:38.290Z,97709.28
2018-03-07T06:39:06.795Z,97710.53
2018-03-07T06:41:35.226Z,97714.95
2018-03-07T06:44:03.688Z,97712.28
2018-03-07T06:46:32.171Z,97716.09
2018-03-07T06:49:00.597Z,97718.75
2018-03-07T06:51:29.053Z,97713.67
2018-03-07T06:53:57.533Z,97711.62
2018-03-07T06:56:25.964Z,97717.02
2018-03-07T06:58:54.398Z,97719.45
2018-03-07T07:01:22.874Z,97722.42
2018-03-07T07:03:51.302Z,97719.63
2018-03-07T07:06:19.748Z,97719.72
2018-03-07T07:08:48.230Z,97726.82
2018-03-07T07:11:16.674Z,97732.94
2018-03-07T07:13:45.136Z,97736.63
2018-03-07T07:16:13.652Z,97734.84
2018-03-07T07:18:42.087Z,97738.81
2018-03-07T07:21:10.535Z,97740.33
2018-03-07T07:23:39.039Z,97747.17
2018-03-07T07:26:07.481Z,97749.42
2018-03-07T07:28:35.908Z,97751.20
2018-03-07T07:31:04.380Z,97743.16
2018-03-07T07:33:32.825Z,97746.96
2018-03-07T07:36:01.257Z,97752.00
2018-03-07T07:38:29.717Z,97752.78
2018-03-07T07:40:58.162Z,97754.13
2018-03-07T07:43:26.619Z,97751.27
2018-03-07T07:45:55.100Z,97758.19
2018-03-07T07:48:23.514Z,97755.92
2018-03-07T07:50:51.970Z,97761.06
2018-03-07T07:53:20.450Z,97768.33
2018-03-07T07:55:48.893Z,97768.17
2018-03-07T07:58:17.338Z,97767.61
2018-03-07T08:00:45.848Z,97771.41
2018-03-07T08:03:14.304Z,97775.63
2018-03-07T08:05:42.750Z,97777.22
2018-03-07T08:08:11.260Z,97782.63
2018-03-07T08:10:39.706Z,97776.28
2018-03-07T08:13:08.154Z,97786.30
2018-03-07T08:15:36.637Z,97787.00
2018-03-07T08:18:05.091Z,97787.63
2018-03-07T08:20:33.556Z,97783.69
2018-03-07T08:23:02.064Z,97787.31
2018-03-07T08:25:30.525Z,97796.14
2018-03-07T08:27:58.977Z,97792.94
2018-03-07T08:30:27.465Z,97793.15
2018-03-07T08:32:55.931Z,118368.60
2018-03-07T08:35:24.440Z,97794.25
2018-03-07T08:37:52.947Z,118368.60
2018-03-07T08:40:21.416Z,97798.55
2018-03-07T08:42:49.850Z,97806.30
2018-03-07T08:45:18.339Z,118368.60
2018-03-07T08:47:46.819Z,118368.60
2018-03-07T08:50:15.297Z,118368.60
2018-03-07T08:52:43.783Z,97820.87
2018-03-07T08:55:12.221Z,97819.90
2018-03-07T08:57:40.695Z,118368.60
2018-03-07T09:00:09.251Z,118368.60
2018-03-07T09:02:37.715Z,118368.60
2018-03-07T09:05:06.190Z,118368.60
2018-03-07T09:07:34.737Z,118368.60
2018-03-07T09:10:03.221Z,118368.60
2018-03-07T09:12:31.702Z,118368.60
2018-03-07T09:15:00.208Z,97828.84
2018-03-07T09:17:28.670Z,97831.48
2018-03-07T09:19:57.144Z,118368.60
2018-03-07T09:22:25.700Z,118368.60
2018-03-07T09:24:54.173Z,118368.60
2018-03-07T09:27:22.643Z,118368.60
2018-03-07T09:29:51.167Z,97829.89
2018-03-07T09:32:19.650Z,118368.60
2018-03-07T09:34:48.130Z,118368.60
2018-03-07T09:37:16.622Z,97827.66
2018-03-07T09:39:45.065Z,97836.11
2018-03-07T09:42:13.537Z,118368.60
2018-03-07T09:44:42.040Z,97833.34
2018-03-07T09:47:10.570Z,118368.60
2018-03-07T09:49:39.057Z,118368.60
2018-03-07T09:52:07.579Z,118368.60
2018-03-07T09:54:36.071Z,118368.60
2018-03-07T09:57:04.513Z,97842.55
2018-03-07T09:59:33.070Z,118368.60
2018-03-07T10:02:01.570Z,118368.60
2018-03-07T10:04:30.053Z,118368.60
2018-03-07T10:06:58.585Z,118368.60
2018-03-07T10:09:27.069Z,118368.60
2018-03-07T10:11:55.537Z,118368.60
2018-03-07T10:14:24.065Z,118368.60
2018-03-07T10:16:52.575Z,118368.60
2018-03-07T10:19:21.051Z,97835.73
2018-03-07T10:21:49.555Z,97838.19
2018-03-07T10:24:18.027Z,118368.60
2018-03-07T10:26:46.495Z,118368.60
2018-03-07T10:29:14.998Z,97831.27
2018-03-07T10:31:43.449Z,97828.83
2018-03-07T10:34:11.880Z,97832.47
2018-03-07T10:36:40.399Z,118368.60
2018-03-07T10:39:08.884Z,118368.60
2018-03-07T10:41:37.350Z,97841.98
2018-03-07T10:44:05.834Z,97842.61
2018-03-07T10:46:34.292Z,97841.85
2018-03-07T10:49:02.727Z,97849.16
2018-03-07T10:51:31.222Z,97849.80
2018-03-07T10:53:59.668Z,97856.92
2018-03-07T10:56:28.117Z,97856.37
2018-03-07T10:58:56.611Z,97859.11
2018-03-07T11:01:25.064Z,97853.66
2018-03-07T11:03:53.495Z,97856.86
2018-03-07T11:06:22.000Z,97855.02
2018-03-07T11:08:50.485Z,97856.40
2018-03-07T11:11:18.945Z,97858.00
2018-03-07T11:13:47.457Z,97852.02
2018-03-07T11:16:15.934Z,97851.45
2018-03-07T11:18:44.379Z,97852.53
2018-03-07T11:21:12.846Z,97852.15
2018-03-07T11:23:41.286Z,97849.88
2018-03-07T11:26:09.739Z,97853.84
2018-03-07T11:28:38.204Z,97855.44
2018-03-07T11:31:06.648Z,97855.11
2018-03-07T11:33:35.095Z,97854.52
2018-03-07T11:36:03.624Z,97856.49
2018-03-07T11:38:32.057Z,97859.70
2018-03-07T11:41:00.504Z,97861.09
2018-03-07T11:43:29.039Z,97858.89
2018-03-07T11:45:57.481Z,97860.81
2018-03-07T11:48:25.914Z,97859.59
2018-03-07T11:50:54.408Z,97858.86
2018-03-07T11:53:22.869Z,97853.77
2018-03-07T11:55:51.308Z,97857.05
2018-03-07T11:58:19.778Z,97871.78
2018-03-07T12:00:48.207Z,97865.82
2018-03-07T12:03:16.646Z,97867.61
2018-03-07T12:05:45.132Z,97875.36
2018-03-07T12:08:13.577Z,97867.06
2018-03-07T12:10:42.037Z,97870.70
2018-03-07T12:13:10.536Z,97866.98
2018-03-07T12:15:38.970Z,97864.06
2018-03-07T12:18:07.430Z,97863.91
2018-03-07T12:20:35.911Z,97864.05
2018-03-07T12:23:04.388Z,97868.48
2018-03-07T12:25:32.871Z,97860.49
2018-03-07T12:28:01.354Z,97859.46
2018-03-07T12:30:29.810Z,97858.48
2018-03-07T12:32:58.269Z,97860.12
2018-03-07T12:35:26.743Z,97863.64
2018-03-07T12:37:55.170Z,97869.70
2018-03-07T12:40:23.614Z,97866.20
2018-03-07T12:42:52.111Z,97868.22
2018-03-07T12:45:20.562Z,97862.91
2018-03-07T12:47:48.998Z,97863.27
2018-03-07T12:50:17.485Z,97866.25
2018-03-07T12:52:45.942Z,97860.66
2018-03-07T12:55:14.386Z,97868.75
2018-03-07T12:57:42.888Z,97873.95
2018-03-07T13:00:11.365Z,97869.95
2018-03-07T13:02:39.827Z,97878.22
2018-03-07T13:05:08.324Z,97883.20
2018-03-07T13:07:36.758Z,97892.86
2018-03-07T13:10:05.194Z,97895.29
2018-03-07T13:12:33.722Z,97899.38
2018-03-07T13:15:02.174Z,97893.59
2018-03-07T13:17:30.618Z,97899.81
2018-03-07T13:19:59.107Z,97896.25
2018-03-07T13:22:27.557Z,97890.61
2018-03-07T13:24:55.988Z,97898.97
2018-03-07T13:27:24.463Z,97897.45
2018-03-07T13:29:52.910Z,97901.06
2018-03-07T13:32:21.349Z,97899.61
2018-03-07T13:34:49.814Z,97896.91
2018-03-07T13:37:18.245Z,97896.34
2018-03-07T13:39:46.674Z,97887.58
2018-03-07T13:42:15.165Z,97891.20
2018-03-07T13:44:43.595Z,97886.64
2018-03-07T13:47:12.032Z,97884.83
2018-03-07T13:49:40.503Z,97886.21
2018-03-07T13:52:08.935Z,97888.74
2018-03-07T13:54:37.378Z,97891.36
2018-03-07T13:57:05.922Z,97893.03
2018-03-07T13:59:34.351Z,97897.56
2018-03-07T14:02:02.802Z,97894.06
2018-03-07T14:04:31.298Z,97893.07
2018-03-07T14:07:00.312Z,97887.20
2018-03-07T14:09:28.739Z,97883.75
2018-03-07T14:11:57.217Z,97891.34
2018-03-07T14:14:25.682Z,97884.77
2018-03-07T14:16:54.170Z,97890.52
2018-03-07T14:19:22.659Z,97884.76
2018-03-07T14:21:51.126Z,97887.45
2018-03-07T14:24:19.571Z,97889.44
2018-03-07T14:26:48.064Z,97896.55
2018-03-07T14:29:16.487Z,97888.55
2018-03-07T14:31:44.917Z,97892.55
2018-03-07T14:34:13.417Z,97887.32
2018-03-07T14:36:41.887Z,97894.09
2018-03-07T14:39:10.333Z,97889.58
2018-03-07T14:41:38.840Z,97884.11
2018-03-07T14:44:07.278Z,97886.27
2018-03-07T14:46:35.758Z,97888.30
2018-03-07T14:49:04.246Z,97890.56
2018-03-07T14:51:32.709Z,97887.47
2018-03-07T14:54:01.154Z,97888.70
2018-03-07T14:56:29.650Z,97885.86
2018-03-07T14:58:58.092Z,97881.34
2018-03-07T15:01:26.536Z,97879.80
2018-03-07T15:03:55.035Z,97882.95
2018-03-07T15:06:23.503Z,97887.00
2018-03-07T15:08:51.972Z,97884.81
2018-03-07T15:11:20.462Z,97884.61
2018-03-07T15:13:48.898Z,97878.38
2018-03-07T15:16:17.330Z,97884.83
2018-03-07T15:18:45.803Z,97891.41
2018-03-07T15:21:14.285Z,97893.38
2018-03-07T15:23:42.706Z,97893.08
2018-03-07T15:26:11.191Z,97896.14
2018-03-07T15:28:39.619Z,97901.58
2018-03-07T15:31:08.030Z,97903.42
2018-03-07T15:33:36.519Z,97908.73
2018-03-07T15:36:04.930Z,97909.53
2018-03-07T15:38:33.369Z,97914.23
2018-03-07T15:41:01.875Z,97914.33
2018-03-07T15:43:30.321Z,97917.99
2018-03-07T15:45:58.777Z,97917.63
2018-03-07T15:48:27.281Z,97917.41
2018-03-07T15:50:55.719Z,97924.61
2018-03-07T15:53:24.147Z,97930.44
2018-03-07T15:55:52.627Z,97934.57
2018-03-07T15:58:21.048Z,97938.33
2018-03-07T16:00:49.485Z,97934.50
2018-03-07T16:03:17.959Z,97928.00
2018-03-07T16:05:46.387Z,97934.42
2018-03-07T16:08:14.833Z,97933.52
2018-03-07T16:10:43.319Z,97934.84
2018-03-07T16:13:11.766Z,97932.05
2018-03-07T16:15:40.198Z,97935.63
2018-03-07T16:18:08.678Z,97944.00
2018-03-07T16:20:37.110Z,97938.55
2018-03-07T16:23:05.561Z,97938.70
2018-03-07T16:25:34.061Z,97943.96
2018-03-07T16:28:02.503Z,97946.80
2018-03-07T16:30:30.963Z,97948.34
2018-03-07T16:32:59.478Z,97951.08
2018-03-07T16:35:27.928Z,97952.00
2018-03-07T16:37:56.358Z,97957.11
2018-03-07T16:40:24.853Z,97962.16
2018-03-07T16:42:53.304Z,97964.30
2018-03-07T16:45:21.743Z,97965.17
2018-03-07T16:47:50.206Z,97968.59
2018-03-07T16:50:18.657Z,97975.12
2018-03-07T16:52:47.096Z,97980.98
2018-03-07T16:55:15.577Z,97974.56
2018-03-07T16:57:44.028Z,97981.42
2018-03-07T17:00:12.489Z,97980.73
2018-03-07T17:02:40.970Z,97978.91
2018-03-07T17:05:09.407Z,97970.62
2018-03-07T17:07:37.844Z,97985.70
2018-03-07T17:10:06.374Z,97988.70
2018-03-07T17:12:34.808Z,97989.83
2018-03-07T17:15:03.252Z,97994.18
2018-03-07T17:17:31.734Z,97995.55
2018-03-07T17:20:00.184Z,97995.36
2018-03-07T17:22:28.638Z,97997.72
2018-03-07T17:24:57.135Z,98010.66
2018-03-07T17:27:25.580Z,98016.84
2018-03-07T17:29:54.032Z,98016.78
2018-03-07T17:32:22.617Z,98014.60
2018-03-07T17:34:51.046Z,98015.59
2018-03-07T17:37:19.490Z,98018.03
2018-03-07T17:39:48.003Z,98023.15
2018-03-07T17:44:58.464Z,98030.30
2018-03-07T17:47:26.899Z,98033.70
2018-03-07T17:49:55.389Z,98038.78
2018-03-07T17:52:23.855Z,98043.38
2018-03-07T17:54:52.294Z,98041.64
2018-03-07T17:57:20.730Z,98038.06
2018-03-07T17:59:49.202Z,98044.69
2018-03-07T18:02:17.638Z,98040.19
2018-03-07T18:04:46.069Z,98047.25
2018-03-07T18:07:14.570Z,98058.69
2018-03-07T18:09:42.998Z,98062.63
2018-03-07T18:12:11.426Z,98067.23
2018-03-07T18:14:39.930Z,98062.73
2018-03-07T18:17:08.363Z,98065.53
2018-03-07T18:19:36.796Z,98063.45
2018-03-07T18:22:05.284Z,98064.21
2018-03-07T18:24:33.736Z,98064.84
2018-03-07T18:27:02.205Z,98061.56
2018-03-07T18:29:30.692Z,98056.59
2018-03-07T18:31:59.132Z,98060.31
2018-03-07T18:34:27.577Z,98058.98
2018-03-07T18:36:56.047Z,98054.50
2018-03-07T18:39:24.488Z,98055.59
2018-03-07T18:41:52.940Z,98065.86
2018-03-07T18:44:21.558Z,98064.91
2018-03-07T18:46:49.999Z,98068.47
2018-03-07T18:49:18.423Z,98076.42
2018-03-07T18:51:46.922Z,98081.98
2018-03-07T18:54:15.367Z,98079.58
2018-03-07T18:56:43.818Z,98084.66
2018-03-07T18:59:12.318Z,98078.02
2018-03-07T19:01:40.788Z,98085.41
2018-03-07T19:04:09.214Z,98080.11
2018-03-07T19:06:37.709Z,98084.84
2018-03-07T19:09:06.174Z,98081.26
2018-03-07T19:11:34.594Z,98078.61
2018-03-07T19:14:03.085Z,98076.06
2018-03-07T19:16:31.549Z,98074.67
2018-03-07T19:18:59.981Z,98072.58
2018-03-07T19:21:28.451Z,98069.14
2018-03-07T19:23:56.889Z,98067.88
2018-03-07T19:26:25.316Z,98070.59
2018-03-07T19:28:53.777Z,98072.28
2018-03-07T19:31:22.225Z,98073.53
2018-03-07T19:33:50.676Z,98080.97
2018-03-07T19:36:19.249Z,98081.48
2018-03-07T19:38:47.680Z,98086.38
2018-03-07T19:41:16.135Z,98087.43
2018-03-07T19:43:44.607Z,98089.20
2018-03-07T19:46:13.049Z,98089.69
2018-03-07T19:48:41.494Z,98093.41
2018-03-07T19:51:09.986Z,98102.42
2018-03-07T19:53:38.429Z,98103.33
2018-03-07T19:58:58.772Z,98109.97
2018-03-07T20:01:27.214Z,98109.55
2018-03-07T20:03:55.642Z,98111.86
2018-03-07T20:06:24.141Z,98114.70
2018-03-07T20:08:52.579Z,98110.55
2018-03-07T20:11:21.058Z,98115.45
2018-03-07T20:13:49.524Z,98120.64
2018-03-07T20:16:17.984Z,98112.97
2018-03-07T20:18:46.427Z,98110.06
2018-03-07T20:24:06.061Z,98118.66
2018-03-07T20:26:34.507Z,98122.73
2018-03-07T20:29:02.960Z,98120.43
2018-03-07T20:31:31.483Z,98123.22
2018-03-07T20:33:59.916Z,98119.42
2018-03-07T20:36:28.372Z,98125.13
2018-03-07T20:38:56.830Z,98134.32
2018-03-07T20:41:25.913Z,98131.44
2018-03-07T20:43:54.342Z,98139.61
2018-03-07T20:46:22.831Z,98132.83
2018-03-07T20:48:51.345Z,98135.08
2018-03-07T20:51:19.795Z,98132.59
2018-03-07T20:53:48.307Z,98133.66
2018-03-07T20:56:16.746Z,98136.23
2018-03-07T20:58:45.191Z,98132.41
2018-03-07T21:01:13.708Z,98138.61
2018-03-07T21:03:42.172Z,98130.27
2018-03-07T21:06:10.618Z,98133.80
2018-03-07T21:08:39.134Z,98135.30
2018-03-07T21:11:07.562Z,98137.77
2018-03-07T21:13:36.013Z,98131.83
2018-03-07T21:16:04.542Z,98133.56
2018-03-07T21:18:32.989Z,98140.98
2018-03-07T21:21:01.439Z,98138.58
2018-03-07T21:23:29.945Z,98138.27
2018-03-07T21:25:58.392Z,98144.95
2018-03-07T21:28:26.844Z,98138.85
2018-03-07T21:30:55.323Z,98144.38
2018-03-07T21:33:23.777Z,98141.91
2018-03-07T21:35:52.245Z,98135.22
2018-03-07T21:38:20.738Z,98130.41
2018-03-07T21:40:49.330Z,98131.90
2018-03-07T21:43:17.771Z,98139.33
2018-03-07T21:45:46.288Z,98141.66
2018-03-07T21:48:14.742Z,98136.95
2018-03-07T21:50:43.665Z,98139.02
2018-03-07T21:53:12.177Z,98142.14
2018-03-07T21:55:40.641Z,98141.84
2018-03-07T21:58:09.101Z,98142.99
2018-03-07T22:00:37.592Z,98142.25
2018-03-07T22:03:06.033Z,98143.16
2018-03-07T22:05:34.468Z,98144.05
2018-03-07T22:08:02.969Z,98143.88
2018-03-07T22:10:31.416Z,98144.62
2018-03-07T22:12:59.898Z,98142.55
2018-03-07T22:15:28.397Z,98147.19
2018-03-07T22:17:56.861Z,98151.33
2018-03-07T22:20:25.297Z,98144.21
2018-03-07T22:22:53.796Z,98141.73
2018-03-07T22:25:22.243Z,98144.67
2018-03-07T22:27:50.699Z,98147.42
2018-03-07T22:30:19.165Z,98150.89
2018-03-07T22:32:47.609Z,98152.14
2018-03-07T22:35:16.052Z,98158.36
2018-03-07T22:37:44.568Z,98157.95
2018-03-07T22:40:13.001Z,98154.90
2018-03-07T22:42:41.438Z,98157.88
2018-03-07T22:45:09.917Z,98157.73
2018-03-07T22:47:38.346Z,98157.58
2018-03-07T22:50:06.776Z,98164.42
2018-03-07T22:52:35.277Z,98166.66
2018-03-07T22:55:03.710Z,98167.58
2018-03-07T22:57:32.130Z,98162.44
2018-03-07T23:00:00.615Z,98167.41
2018-03-07T23:02:29.038Z,98177.34
2018-03-07T23:04:57.506Z,98170.38
2018-03-07T23:07:26.001Z,98174.45
2018-03-07T23:09:54.431Z,98175.17
2018-03-07T23:12:22.851Z,98175.78
2018-03-07T23:14:51.352Z,98183.12
2018-03-07T23:17:19.783Z,98178.98
2018-03-07T23:19:48.216Z,98185.30
2018-03-07T23:22:16.690Z,98185.02
2018-03-07T23:24:45.125Z,98189.98
2018-03-07T23:27:13.548Z,98194.22
2018-03-07T23:29:42.010Z,98187.50
2018-03-07T23:32:10.434Z,98191.41
2018-03-07T23:34:38.884Z,118368.60
2018-03-07T23:37:07.375Z,118368.60
2018-03-07T23:39:35.836Z,98188.20
2018-03-07T23:42:04.293Z,98192.46
2018-03-07T23:44:32.768Z,98192.20
2018-03-07T23:47:01.199Z,98196.69
2018-03-07T23:49:29.654Z,118368.60
2018-03-07T23:51:58.171Z,118368.60
2018-03-07T23:54:26.655Z,118368.60
2018-03-07T23:56:55.129Z,118368.60
2018-03-07T23:59:23.646Z,118368.60
